Station Historical Data
Daily Summary for November 30, 2017 Units:  English    Metric   Both
« Previous Day
Next Day »
Daily Weekly Monthly Yearly Custom
  High: Low: Average:
Temperature: 67.3 °F 48.2 °F 56.9 °F
Dew Point: 60.9 °F 46.3 °F 54 °F
Humidity: 94% 75% 90%
Wind Speed: 3.5mph 0.0mph 0.2mph
Wind Gust: 3.5mph - -
Wind- - West
Pressure: 30.25 in 30.11 in -
Precipitation: 0.07 in    
Historical Graphs
 
 
Tabular Data for November 30, 2017
Time Temperature Dew Point Pressure Wind Wind Speed Wind Gust Humidity Rainfall Rate (Hourly) Conditions
00:03 50.6 °F 48.7 °F 30.25 in Calm     93% 0.00 in
00:13 50.3 °F 48.1 °F 30.25 in Calm     92% 0.00 in
00:18 50.2 °F 48.3 °F 30.25 in Calm     93% 0.00 in
00:24 50.3 °F 48.4 °F 30.24 in Calm     93% 0.00 in
00:29 50.5 °F 48.6 °F 30.24 in Calm     93% 0.00 in
00:34 50.5 °F 48.6 °F 30.24 in Calm     93% 0.00 in
00:44 50.5 °F 48.6 °F 30.24 in Calm     93% 0.00 in
00:49 50.7 °F 48.7 °F 30.24 in Calm     93% 0.00 in
00:54 50.8 °F 48.8 °F 30.24 in Calm     93% 0.00 in
00:59 50.8 °F 48.8 °F 30.24 in Calm     93% 0.00 in
01:04 50.7 °F 48.7 °F 30.24 in Calm     93% 0.00 in
01:09 50.6 °F 48.7 °F 30.24 in Calm     93% 0.00 in
01:14 50.5 °F 48.6 °F 30.24 in Calm     93% 0.00 in
01:24 50.2 °F 48.3 °F 30.23 in Calm     93% 0.00 in
01:35 50.0 °F 48.0 °F 30.23 in Calm     93% 0.00 in CLR
01:40 49.9 °F 48.0 °F 30.23 in Calm     93% 0.00 in CLR
01:45 50.0 °F 48.1 °F 30.24 in Calm     93% 0.00 in
01:50 50.0 °F 48.1 °F 30.24 in Calm     93% 0.00 in
01:55 50.1 °F 48.2 °F 30.23 in Calm     93% 0.00 in
02:05 50.1 °F 48.2 °F 30.24 in Calm     93% 0.00 in BKN
02:10 50.1 °F 48.2 °F 30.23 in Calm     93% 0.00 in BKN
02:15 50.0 °F 48.1 °F 30.23 in Calm     93% 0.00 in BKN
02:20 50.0 °F 48.1 °F 30.23 in Calm     93% 0.00 in BKN
02:25 49.9 °F 48.0 °F 30.23 in Calm     93% 0.00 in SCT
02:30 49.8 °F 47.9 °F 30.23 in Calm     93% 0.00 in SCT
02:35 49.7 °F 47.8 °F 30.23 in Calm     93% 0.00 in BKN
02:46 49.5 °F 47.6 °F 30.23 in Calm     93% 0.00 in BKN
02:51 49.4 °F 47.5 °F 30.23 in Calm     93% 0.00 in
03:06 49.1 °F 47.2 °F 30.24 in Calm     93% 0.00 in
03:11 49.1 °F 47.2 °F 30.23 in Calm     93% 0.00 in
03:16 49.2 °F 47.3 °F 30.23 in Calm     93% 0.00 in
03:21 49.3 °F 47.4 °F 30.23 in Calm     93% 0.00 in
03:26 49.4 °F 47.5 °F 30.23 in Calm     93% 0.00 in
03:31 49.4 °F 47.5 °F 30.23 in Calm     93% 0.00 in
03:37 49.5 °F 47.6 °F 30.23 in Calm     93% 0.00 in
03:42 49.5 °F 47.6 °F 30.23 in Calm     93% 0.00 in
03:52 49.6 °F 47.7 °F 30.24 in Calm     93% 0.00 in
04:23 49.4 °F 47.5 °F 30.23 in Calm     93% 0.00 in CLR
04:33 49.1 °F 47.2 °F 30.23 in Calm     93% 0.00 in SCT
04:38 49.0 °F 47.1 °F 30.23 in Calm     93% 0.00 in SCT
04:43 48.9 °F 47.0 °F 30.23 in Calm     93% 0.00 in SCT
04:48 48.9 °F 47.0 °F 30.22 in Calm     93% 0.00 in SCT
04:53 48.8 °F 46.9 °F 30.22 in Calm     93% 0.00 in SCT
04:58 48.7 °F 46.8 °F 30.22 in Calm     93% 0.00 in SCT
05:08 48.5 °F 46.6 °F 30.22 in Calm     93% 0.00 in FEW
05:14 48.5 °F 46.6 °F 30.23 in Calm     93% 0.00 in FEW
05:19 48.4 °F 46.5 °F 30.23 in Calm     93% 0.00 in FEW
05:34 48.4 °F 46.5 °F 30.23 in Calm     93% 0.00 in FEW
05:39 48.4 °F 46.5 °F 30.22 in Calm     93% 0.00 in FEW
05:44 48.4 °F 46.5 °F 30.22 in Calm     93% 0.00 in FEW
05:49 48.4 °F 46.5 °F 30.22 in Calm     93% 0.00 in FEW
05:55 48.4 °F 46.5 °F 30.22 in Calm     93% 0.00 in FEW
06:00 48.4 °F 46.5 °F 30.22 in Calm     93% 0.00 in FEW
06:05 48.5 °F 46.6 °F 30.22 in Calm     93% 0.00 in CLR
06:10 48.5 °F 46.6 °F 30.22 in Calm     93% 0.00 in CLR
06:15 48.5 °F 46.6 °F 30.22 in Calm     93% 0.00 in CLR
06:20 48.4 °F 46.5 °F 30.22 in Calm     93% 0.00 in CLR
06:30 48.4 °F 46.5 °F 30.22 in Calm     93% 0.00 in BKN
06:35 48.3 °F 46.4 °F 30.22 in Calm     93% 0.00 in BKN
06:40 48.2 °F 46.3 °F 30.23 in Calm     93% 0.00 in BKN
06:45 48.2 °F 46.3 °F 30.22 in Calm     93% 0.00 in BKN
06:56 48.7 °F 47.1 °F 30.23 in Calm     94% 0.00 in BKN
07:06 48.9 °F 47.2 °F 30.22 in Calm     94% 0.00 in -RA
07:11 49.0 °F 47.3 °F 30.23 in Calm     94% 0.00 in -RA
07:21 49.3 °F 47.6 °F 30.23 in Calm     94% 0.00 in -RA
07:26 49.4 °F 47.7 °F 30.23 in Calm     94% 0.00 in -RA
07:31 49.6 °F 47.9 °F 30.23 in Calm     94% 0.00 in -RA
07:36 49.7 °F 48.0 °F 30.23 in Calm     94% 0.00 in BKN
07:41 49.8 °F 48.1 °F 30.23 in Calm     94% 0.00 in BKN
07:46 49.9 °F 48.2 °F 30.23 in Calm     94% 0.00 in BKN
07:51 49.9 °F 48.2 °F 30.23 in Calm     94% 0.00 in BKN
07:56 49.9 °F 48.2 °F 30.23 in Calm     94% 0.00 in BKN
08:07 50.0 °F 48.3 °F 30.23 in Calm     94% 0.00 in BKN
08:17 50.3 °F 48.6 °F 30.23 in Calm     94% 0.00 in BKN
08:22 50.4 °F 48.7 °F 30.23 in Calm     94% 0.00 in -RA
08:27 50.5 °F 48.8 °F 30.23 in Calm     94% 0.00 in -RA
08:32 50.7 °F 49.0 °F 30.23 in Calm     94% 0.00 in -RA
08:37 51.0 °F 49.3 °F 30.23 in Calm     94% 0.00 in -RA
08:42 51.3 °F 49.6 °F 30.23 in Calm     94% 0.00 in -RA
08:57 52.2 °F 50.5 °F 30.23 in Calm     94% 0.00 in -RA
09:13 52.8 °F 51.1 °F 30.23 in Calm     94% 0.01 in -DZ
09:28 53.5 °F 51.8 °F 30.23 in Calm     94% 0.02 in -DZ
09:33 53.6 °F 51.9 °F 30.23 in Calm     94% 0.03 in -RA
09:38 53.8 °F 52.1 °F 30.23 in Calm     94% 0.04 in -RA
09:43 53.9 °F 52.2 °F 30.23 in Calm     94% 0.05 in -RA
09:48 54.0 °F 52.3 °F 30.23 in Calm     94% 0.05 in -RA
09:58 54.0 °F 52.3 °F 30.23 in Calm     94% 0.06 in -RA
10:03 54.2 °F 52.5 °F 30.24 in Calm     94% 0.07 in BKN
10:08 54.3 °F 52.6 °F 30.23 in Calm     94% 0.07 in BKN
10:14 54.4 °F 52.7 °F 30.23 in Calm     94% 0.06 in BKN
10:19 54.7 °F 53.0 °F 30.23 in Calm     94% 0.06 in BKN
10:34 55.6 °F 53.9 °F 30.22 in Calm     94% 0.04 in BKN
10:35 55.6 °F 53.9 °F 30.22 in Calm     94% 0.00 in BKN
10:40 56.2 °F 54.4 °F 30.22 in Calm     94% 0.00 in BKN
10:45 57.0 °F 55.3 °F 30.22 in Calm     94% 0.02 in BKN
10:50 58.1 °F 56.4 °F 30.22 in Calm     94% 0.02 in BKN
10:55 58.8 °F 57.1 °F 30.22 in NNW 1.2 mph   94% 0.01 in BKN
11:10 60.5 °F 58.8 °F 30.21 in NW 1.2 mph   94% 0.00 in BKN
11:16 61.4 °F 59.7 °F 30.20 in NW 1.2 mph   94% 0.00 in BKN
11:21 62.0 °F 59.6 °F 30.20 in Calm     92% 0.00 in BKN
11:26 62.6 °F 59.6 °F 30.20 in NW 1.2 mph   90% 0.00 in BKN
11:36 63.0 °F 59.4 °F 30.19 in NW 1.2 mph   88% 0.00 in BKN
11:41 63.5 °F 59.2 °F 30.19 in NW 1.2 mph   86% 0.00 in BKN
11:46 63.7 °F 59.4 °F 30.19 in WNW 1.2 mph 1.2 mph 86% 0.00 in BKN
11:56 64.5 °F 60.2 °F 30.19 in NNW 1.2 mph   86% 0.00 in BKN
12:01 65.1 °F 60.5 °F 30.18 in NNW 1.2 mph 1.2 mph 85% 0.00 in BKN
12:06 65.9 °F 60.9 °F 30.18 in NNW 1.2 mph   84% 0.00 in BKN
12:11 66.3 °F 60.3 °F 30.18 in NW 1.2 mph 1.5 mph 81% 0.00 in BKN
12:16 66.5 °F 60.1 °F 30.18 in North 3.5 mph 3.5 mph 80% 0.00 in BKN
12:22 66.7 °F 60.3 °F 30.17 in NNE 3.5 mph   80% 0.00 in BKN
12:32 67.2 °F 60.1 °F 30.17 in West 1.2 mph   78% 0.00 in BKN
12:37 67.3 °F 59.8 °F 30.17 in West 1.2 mph   77% 0.00 in BKN
12:42 67.1 °F 59.3 °F 30.16 in NW 2.3 mph   76% 0.00 in BKN
12:47 66.9 °F 59.1 °F 30.16 in North 2.3 mph 2.3 mph 76% 0.00 in BKN
12:57 67.1 °F 59.3 °F 30.16 in WNW 3.5 mph 3.5 mph 76% 0.00 in BKN
13:02 66.9 °F 58.7 °F 30.16 in WNW 3.5 mph   75% 0.00 in BKN
13:12 66.9 °F 59.1 °F 30.15 in North 1.2 mph 1.2 mph 76% 0.00 in BKN
13:17 66.8 °F 59.4 °F 30.15 in NNE 1.2 mph   77% 0.00 in BKN
13:38 66.6 °F 59.2 °F 30.14 in Calm     77% 0.00 in BKN
13:43 66.7 °F 59.6 °F 30.14 in WNW 1.2 mph   78% 0.00 in BKN
13:48 66.8 °F 59.0 °F 30.13 in WNW 1.2 mph   76% 0.00 in BKN
13:53 67.0 °F 59.5 °F 30.13 in NW 1.2 mph 1.2 mph 77% 0.00 in BKN
13:58 67.0 °F 59.5 °F 30.13 in NW 1.2 mph   77% 0.00 in BKN
14:03 67.0 °F 59.5 °F 30.13 in NW 1.2 mph   77% 0.00 in -RA
14:08 66.9 °F 59.5 °F 30.13 in NNW 1.2 mph   77% 0.00 in -RA
14:13 66.9 °F 59.8 °F 30.13 in Calm     78% 0.00 in -RA
14:18 66.7 °F 59.6 °F 30.13 in Calm     78% 0.00 in -RA
14:23 66.5 °F 59.8 °F 30.12 in Calm     79% 0.00 in -RA
14:28 66.2 °F 59.8 °F 30.12 in Calm     80% 0.00 in OVC
14:34 66.0 °F 59.7 °F 30.12 in Calm     80% 0.00 in OVC
14:39 65.8 °F 59.5 °F 30.12 in Calm     80% 0.00 in OVC
14:44 65.6 °F 59.3 °F 30.12 in Calm     80% 0.00 in OVC
14:49 65.5 °F 59.2 °F 30.12 in Calm     80% 0.00 in OVC
14:54 65.4 °F 59.1 °F 30.12 in Calm     80% 0.00 in OVC
14:59 65.3 °F 59.3 °F 30.12 in Calm     81% 0.00 in OVC
15:09 65.1 °F 59.1 °F 30.12 in Calm     81% 0.00 in OVC
15:14 65.1 °F 59.5 °F 30.12 in Calm     82% 0.00 in OVC
15:20 65.0 °F 59.4 °F 30.11 in Calm     82% 0.00 in OVC
15:25 64.9 °F 59.3 °F 30.11 in Calm     82% 0.00 in OVC
15:30 64.8 °F 59.5 °F 30.12 in NNW 1.2 mph   83% 0.00 in OVC
15:35 64.7 °F 59.4 °F 30.12 in NNE 1.2 mph 1.2 mph 83% 0.00 in OVC
15:41 64.5 °F 59.2 °F 30.12 in NE 1.2 mph   83% 0.00 in OVC
15:51 64.1 °F 59.5 °F 30.12 in SSE 1.2 mph   85% 0.00 in OVC
15:56 63.9 °F 59.3 °F 30.12 in SW 1.2 mph   85% 0.00 in OVC
16:11 63.3 °F 59.4 °F 30.12 in Calm     87% 0.00 in -RA
16:36 62.5 °F 59.5 °F 30.11 in Calm     90% 0.00 in -DZ
16:42 62.4 °F 59.4 °F 30.11 in Calm     90% 0.00 in -DZ
16:47 62.4 °F 59.4 °F 30.11 in Calm     90% 0.00 in -DZ
17:07 61.9 °F 59.2 °F 30.11 in Calm     91% 0.00 in BKN
17:12 61.8 °F 59.1 °F 30.11 in Calm     91% 0.00 in BKN
17:17 61.8 °F 59.1 °F 30.11 in Calm     91% 0.00 in BKN
17:22 61.7 °F 59.0 °F 30.11 in Calm     91% 0.00 in BKN
17:27 61.6 °F 58.9 °F 30.11 in Calm     91% 0.00 in BKN
17:32 61.4 °F 59.1 °F 30.11 in Calm     92% 0.00 in BKN
17:37 61.4 °F 59.1 °F 30.11 in Calm     92% 0.00 in BKN
17:47 61.2 °F 58.9 °F 30.12 in Calm     92% 0.00 in BKN
17:53 61.1 °F 58.8 °F 30.11 in Calm     92% 0.00 in BKN
17:58 61.0 °F 58.7 °F 30.11 in Calm     92% 0.00 in BKN
18:03 60.9 °F 58.6 °F 30.11 in Calm     92% 0.00 in BKN
18:13 60.5 °F 58.2 °F 30.11 in Calm     92% 0.00 in BKN
18:23 60.1 °F 57.8 °F 30.12 in Calm     92% 0.00 in BKN
18:28 59.9 °F 57.6 °F 30.12 in Calm     92% 0.00 in BKN
18:33 59.6 °F 57.3 °F 30.12 in Calm     92% 0.00 in BKN
18:48 59.1 °F 56.8 °F 30.13 in WSW 1.2 mph   92% 0.00 in BKN
18:59 58.9 °F 56.6 °F 30.13 in Calm     92% 0.00 in BKN
19:04 58.8 °F 56.5 °F 30.13 in Calm     92% 0.00 in BKN
19:09 58.8 °F 56.5 °F 30.13 in Calm     92% 0.00 in BKN
19:14 58.7 °F 56.4 °F 30.14 in Calm     92% 0.00 in BKN
19:19 58.6 °F 56.3 °F 30.13 in Calm     92% 0.00 in BKN
19:24 58.5 °F 56.2 °F 30.13 in Calm     92% 0.00 in OVC
19:29 58.4 °F 56.1 °F 30.13 in Calm     92% 0.00 in OVC
19:34 58.5 °F 56.2 °F 30.13 in Calm     92% 0.00 in OVC
19:39 58.4 °F 56.1 °F 30.13 in Calm     92% 0.00 in OVC
19:44 58.4 °F 56.1 °F 30.13 in Calm     92% 0.00 in OVC
19:49 58.5 °F 56.2 °F 30.13 in Calm     92% 0.00 in OVC
19:54 58.5 °F 56.5 °F 30.13 in Calm     93% 0.00 in OVC
19:59 58.6 °F 56.6 °F 30.13 in Calm     93% 0.00 in OVC
20:05 58.6 °F 56.6 °F 30.14 in Calm     93% 0.00 in OVC
20:10 58.7 °F 56.7 °F 30.14 in Calm     93% 0.00 in OVC
20:15 58.9 °F 56.9 °F 30.13 in Calm     93% 0.00 in OVC
20:25 59.0 °F 57.0 °F 30.14 in Calm     93% 0.00 in OVC
20:35 59.1 °F 57.1 °F 30.14 in Calm     93% 0.00 in OVC
20:40 59.1 °F 57.1 °F 30.14 in Calm     93% 0.00 in OVC
20:45 59.2 °F 57.2 °F 30.14 in Calm     93% 0.00 in OVC
20:50 59.3 °F 57.3 °F 30.14 in Calm     93% 0.00 in OVC
20:55 59.3 °F 57.3 °F 30.14 in Calm     93% 0.00 in OVC
21:00 59.3 °F 57.3 °F 30.14 in Calm     93% 0.00 in OVC
21:05 59.3 °F 57.3 °F 30.14 in Calm     93% 0.00 in BKN
21:10 59.3 °F 57.3 °F 30.14 in Calm     93% 0.00 in BKN
21:16 59.3 °F 57.3 °F 30.14 in Calm     93% 0.00 in BKN
21:21 59.3 °F 57.3 °F 30.14 in Calm     93% 0.00 in BKN
21:26 59.3 °F 57.3 °F 30.14 in Calm     93% 0.00 in BKN
21:31 59.3 °F 57.3 °F 30.14 in Calm     93% 0.00 in BKN
21:36 59.3 °F 57.3 °F 30.14 in Calm     93% 0.00 in OVC
21:41 59.3 °F 57.3 °F 30.14 in Calm     93% 0.00 in OVC
21:46 59.3 °F 57.3 °F 30.14 in Calm     93% 0.00 in OVC
21:51 59.3 °F 57.3 °F 30.14 in Calm     93% 0.00 in OVC
21:56 59.2 °F 57.2 °F 30.14 in Calm     93% 0.00 in OVC
22:06 59.2 °F 57.2 °F 30.14 in Calm     93% 0.00 in -DZ
22:12 59.2 °F 57.2 °F 30.14 in Calm     93% 0.00 in -DZ
22:19 59.2 °F 57.2 °F 30.14 in Calm     93% 0.00 in -DZ
22:21 59.2 °F 57.2 °F 30.14 in Calm     93% 0.00 in -DZ
22:24 59.2 °F 57.2 °F 30.14 in Calm     93% 0.00 in -DZ
22:25 59.2 °F 57.2 °F 30.14 in Calm     93% 0.00 in -DZ
22:30 59.3 °F 57.3 °F 30.14 in Calm     93% 0.00 in -DZ
22:35 59.3 °F 57.3 °F 30.14 in Calm     93% 0.00 in -DZ
22:36 59.3 °F 57.3 °F 30.14 in Calm     93% 0.00 in -DZ
22:41 59.3 °F 57.3 °F 30.14 in Calm     93% 0.00 in -DZ
22:52 59.4 °F 57.4 °F 30.14 in Calm     93% 0.00 in OVC
22:57 59.4 °F 57.4 °F 30.14 in Calm     93% 0.00 in OVC
22:59 59.3 °F 57.3 °F 30.14 in Calm     93% 0.00 in OVC
23:04 59.3 °F 57.3 °F 30.14 in Calm     93% 0.00 in OVC
23:09 59.3 °F 57.3 °F 30.14 in Calm     93% 0.00 in OVC
23:14 59.4 °F 57.4 °F 30.14 in Calm     93% 0.00 in OVC
23:24 59.4 °F 57.4 °F 30.14 in Calm     93% 0.00 in OVC
23:29 59.4 °F 57.4 °F 30.14 in Calm     93% 0.00 in OVC
23:39 59.4 °F 57.4 °F 30.13 in Calm     93% 0.00 in OVC
23:44 59.4 °F 57.4 °F 30.13 in Calm     93% 0.00 in OVC
23:49 59.4 °F 57.4 °F 30.13 in Calm     93% 0.00 in OVC
23:55 59.4 °F 57.4 °F 30.13 in Calm     93% 0.00 in OVC
Piedmont Bend
Compliments of Weather Underground - 2 mb